Time;durP1;ratioP1;P1;durP2;ratioP2;P2;SDS_P1;SDS_P2;PMS_P1;PMS_P2;Temp;Humidity;BMP_temperature;BMP_pressure;BME280_temperature;BME280_humidity;BME280_pressure;Samples;Min_cycle;Max_cycle;Signal;HPM_P1;HPM_P2
2022/09/12 00:00:46;;;;;;;;;;;17.20;54.90;;;;;;6245698;23;19916;-88
2022/09/12 00:03:12;;;;;;;;;;;17.20;54.90;;;;;;6241392;22;19911;-91
2022/09/12 00:05:44;;;;;;;;;;;17.20;54.90;;;;;;6244129;23;20243;-88
2022/09/12 00:08:10;;;;;;;;;;;17.20;55.00;;;;;;6242725;22;19907;-88
2022/09/12 00:10:39;;;;;;;;;;;17.20;55.00;;;;;;6243602;22;20362;-85
2022/09/12 00:13:05;;;;;;;;;;;17.10;55.10;;;;;;6251206;22;20294;-91
2022/09/12 00:15:31;;;;;;;;;;;17.10;55.20;;;;;;6246481;23;20331;-86
2022/09/12 00:17:56;;;;;;;;;;;17.10;55.40;;;;;;6242975;22;19958;-88
2022/09/12 00:20:22;;;;;;;;;;;17.10;55.40;;;;;;6245985;23;19923;-87
2022/09/12 00:22:47;;;;;;;;;;;17.10;55.60;;;;;;6241962;22;19915;-89
2022/09/12 00:25:13;;;;;;;;;;;17.10;55.60;;;;;;6240502;23;20209;-86
2022/09/12 00:27:38;;;;;;;;;;;17.10;55.50;;;;;;6240505;22;19919;-86
2022/09/12 00:30:04;;;;;;;;;;;17.10;55.60;;;;;;6241984;23;19946;-88
2022/09/12 00:32:30;;;;;;;;;;;17.10;55.60;;;;;;6241203;22;19907;-89
2022/09/12 00:34:55;;;;;;;;;;;17.10;55.60;;;;;;6249154;22;19912;-91
2022/09/12 00:37:21;;;;;;;;;;;17.10;55.50;;;;;;6247131;23;19914;-85
2022/09/12 00:39:46;;;;;;;;;;;17.10;55.40;;;;;;6242306;22;19919;-87
2022/09/12 00:42:12;;;;;;;;;;;17.10;55.40;;;;;;6245820;23;19923;-88
2022/09/12 00:44:37;;;;;;;;;;;17.10;55.60;;;;;;6244798;22;19921;-92
2022/09/12 00:47:04;;;;;;;;;;;17.10;55.70;;;;;;6240998;23;19908;-87
2022/09/12 00:49:32;;;;;;;;;;;17.10;55.80;;;;;;6241805;22;19927;-88
2022/09/12 00:52:00;;;;;;;;;;;17.10;55.80;;;;;;6242989;22;19904;-87
2022/09/12 00:54:29;;;;;;;;;;;17.00;55.80;;;;;;6240982;22;19915;-86
2022/09/12 00:56:56;;;;;;;;;;;17.00;55.80;;;;;;6240257;23;19903;-85
2022/09/12 00:59:28;;;;;;;;;;;17.00;55.80;;;;;;6241111;22;20362;-87
2022/09/12 01:01:53;;;;;;;;;;;17.10;56.00;;;;;;6242004;22;19934;-89
2022/09/12 01:04:20;;;;;;;;;;;17.00;56.00;;;;;;6240517;22;20330;-93
2022/09/12 01:06:47;;;;;;;;;;;17.00;56.00;;;;;;6242710;23;19903;-86
2022/09/12 01:09:17;;;;;;;;;;;17.00;56.00;;;;;;6242792;22;19911;-89
2022/09/12 01:11:44;;;;;;;;;;;17.00;56.10;;;;;;6246627;23;19932;-88
2022/09/12 01:14:11;;;;;;;;;;;16.90;56.10;;;;;;6264813;22;19915;-91
2022/09/12 01:16:36;;;;;;;;;;;16.90;56.20;;;;;;6241856;22;19935;-86
2022/09/12 01:19:28;;;;;;;;;;;16.90;56.20;;;;;;6242251;22;19922;-89
2022/09/12 01:22:12;;;;;;;;;;;16.80;56.20;;;;;;6267599;22;20316;-91
2022/09/12 01:24:50;;;;;;;;;;;16.80;56.40;;;;;;6244030;22;19920;-86
2022/09/12 01:27:31;;;;;;;;;;;16.70;56.50;;;;;;6266818;22;19904;-90
2022/09/12 01:29:59;;;;;;;;;;;16.70;56.40;;;;;;6240571;22;19978;-86
2022/09/12 01:32:27;;;;;;;;;;;16.70;56.40;;;;;;6241259;23;20263;-90
2022/09/12 01:35:07;;;;;;;;;;;16.70;56.50;;;;;;6244560;22;19915;-85
2022/09/12 01:37:43;;;;;;;;;;;16.60;56.40;;;;;;6240051;23;19903;-88
2022/09/12 01:40:14;;;;;;;;;;;16.60;56.50;;;;;;6241681;22;19911;-88
2022/09/12 01:42:44;;;;;;;;;;;16.60;56.50;;;;;;6241843;22;20243;-87
2022/09/12 01:45:13;;;;;;;;;;;16.60;56.50;;;;;;6242033;22;19926;-86
2022/09/12 01:47:40;;;;;;;;;;;16.50;56.50;;;;;;6241692;22;20243;-89
2022/09/12 01:50:09;;;;;;;;;;;16.50;56.60;;;;;;6243373;22;19938;-85
2022/09/12 01:52:46;;;;;;;;;;;16.50;56.60;;;;;;6243442;23;19903;-86
2022/09/12 01:55:15;;;;;;;;;;;16.50;56.70;;;;;;6244571;23;19911;-89
2022/09/12 01:57:48;;;;;;;;;;;16.40;56.80;;;;;;6243791;22;19904;-91
2022/09/12 02:00:13;;;;;;;;;;;16.40;56.80;;;;;;6248103;22;19967;-91
2022/09/12 02:02:47;;;;;;;;;;;16.40;56.80;;;;;;6241818;22;19915;-88
2022/09/12 02:05:31;;;;;;;;;;;16.30;56.70;;;;;;6243377;22;19919;-89
2022/09/12 02:08:01;;;;;;;;;;;16.30;56.80;;;;;;6241841;22;19907;-87
2022/09/12 02:10:31;;;;;;;;;;;16.30;56.90;;;;;;6243718;23;19922;-84
2022/09/12 02:13:00;;;;;;;;;;;16.20;56.80;;;;;;6250826;22;19908;-90
2022/09/12 02:15:27;;;;;;;;;;;16.20;56.80;;;;;;6240364;23;19912;-85
2022/09/12 02:17:54;;;;;;;;;;;16.20;56.80;;;;;;6242298;22;19904;-86
2022/09/12 02:20:22;;;;;;;;;;;16.10;56.80;;;;;;6240787;23;19958;-86
2022/09/12 02:22:49;;;;;;;;;;;16.20;56.80;;;;;;6249708;22;19991;-87
2022/09/12 02:25:17;;;;;;;;;;;16.10;56.90;;;;;;6247982;22;20232;-87
2022/09/12 02:27:51;;;;;;;;;;;16.10;56.90;;;;;;6241713;22;20331;-86
2022/09/12 02:30:18;;;;;;;;;;;16.00;57.00;;;;;;6239476;23;19986;-85
2022/09/12 02:32:57;;;;;;;;;;;16.00;57.30;;;;;;6239994;22;19903;-92
2022/09/12 02:35:31;;;;;;;;;;;16.00;57.60;;;;;;6240042;23;19911;-88
2022/09/12 02:37:57;;;;;;;;;;;16.00;57.80;;;;;;6243144;22;19922;-90
2022/09/12 02:40:23;;;;;;;;;;;16.00;58.10;;;;;;6241361;23;19908;-88
2022/09/12 02:42:49;;;;;;;;;;;15.90;58.30;;;;;;6241180;22;19912;-88
2022/09/12 02:45:14;;;;;;;;;;;16.00;58.50;;;;;;6242025;22;19990;-87
2022/09/12 02:47:47;;;;;;;;;;;16.00;58.60;;;;;;6243070;22;20306;-85
2022/09/12 02:50:12;;;;;;;;;;;16.00;58.80;;;;;;6244365;23;19918;-88
2022/09/12 02:52:38;;;;;;;;;;;16.00;58.80;;;;;;6240697;22;19947;-88
2022/09/12 02:55:04;;;;;;;;;;;16.00;58.80;;;;;;6242027;23;19912;-90
2022/09/12 02:57:30;;;;;;;;;;;15.90;58.80;;;;;;6243282;22;19919;-89
2022/09/12 02:59:57;;;;;;;;;;;15.90;59.00;;;;;;6265643;22;19908;-91
2022/09/12 03:02:29;;;;;;;;;;;15.90;59.10;;;;;;6241389;22;19915;-87
2022/09/12 03:05:00;;;;;;;;;;;15.90;59.20;;;;;;6241520;22;19970;-92
2022/09/12 03:07:49;;;;;;;;;;;15.90;59.30;;;;;;6241244;23;19912;-90
2022/09/12 03:10:14;;;;;;;;;;;15.90;59.40;;;;;;6243831;23;19994;-85
2022/09/12 03:12:54;;;;;;;;;;;15.90;59.50;;;;;;6238574;22;20345;-88
2022/09/12 03:15:35;;;;;;;;;;;15.90;59.40;;;;;;6240993;22;19939;-90
2022/09/12 03:18:05;;;;;;;;;;;15.90;59.40;;;;;;6240621;22;19908;-88
2022/09/12 03:20:43;;;;;;;;;;;15.80;59.60;;;;;;6240880;22;19969;-92
2022/09/12 03:23:15;;;;;;;;;;;15.90;59.70;;;;;;6241656;22;19938;-87
2022/09/12 03:25:47;;;;;;;;;;;15.80;59.70;;;;;;6240966;23;19916;-87
2022/09/12 03:28:14;;;;;;;;;;;15.80;59.70;;;;;;6238245;22;19911;-92
2022/09/12 03:30:41;;;;;;;;;;;15.80;59.60;;;;;;6240334;23;19907;-91
2022/09/12 03:33:10;;;;;;;;;;;15.80;59.50;;;;;;6238798;22;19907;-85
2022/09/12 03:35:35;;;;;;;;;;;15.70;59.50;;;;;;6238458;23;19912;-90
2022/09/12 03:38:01;;;;;;;;;;;15.70;59.70;;;;;;6242537;22;19904;-87
2022/09/12 03:40:26;;;;;;;;;;;15.70;59.80;;;;;;6243460;23;19922;-90
2022/09/12 03:42:52;;;;;;;;;;;15.70;59.90;;;;;;6239607;22;19994;-87
2022/09/12 03:45:18;;;;;;;;;;;15.70;60.00;;;;;;6241628;23;19931;-88
2022/09/12 03:47:43;;;;;;;;;;;15.70;60.10;;;;;;6239387;22;19904;-90
2022/09/12 03:50:09;;;;;;;;;;;15.70;60.20;;;;;;6239569;23;20135;-88
2022/09/12 03:52:34;;;;;;;;;;;15.70;60.40;;;;;;6242701;23;19904;-90
2022/09/12 03:55:00;;;;;;;;;;;15.70;60.60;;;;;;6240229;22;19942;-87
2022/09/12 03:57:25;;;;;;;;;;;15.70;60.60;;;;;;6242036;23;19908;-85
2022/09/12 03:59:51;;;;;;;;;;;15.70;60.50;;;;;;6242885;22;20042;-89
2022/09/12 04:02:16;;;;;;;;;;;15.80;60.40;;;;;;6241979;23;19999;-85
2022/09/12 04:04:42;;;;;;;;;;;15.80;60.40;;;;;;6242801;22;19926;-87
2022/09/12 04:07:09;;;;;;;;;;;15.70;60.40;;;;;;6241518;23;19904;-85
2022/09/12 04:09:34;;;;;;;;;;;15.70;60.40;;;;;;6243830;22;19912;-91
2022/09/12 04:12:00;;;;;;;;;;;15.80;60.30;;;;;;6242355;23;19915;-85
2022/09/12 04:14:25;;;;;;;;;;;15.70;60.30;;;;;;6242087;22;19922;-88
2022/09/12 04:16:51;;;;;;;;;;;15.70;60.20;;;;;;6240427;23;20612;-91
2022/09/12 04:19:17;;;;;;;;;;;15.70;60.10;;;;;;6242410;22;19970;-87
2022/09/12 04:21:42;;;;;;;;;;;15.70;60.10;;;;;;6241711;23;19903;-85
2022/09/12 04:24:08;;;;;;;;;;;15.70;60.20;;;;;;6239855;22;20003;-87
2022/09/12 04:26:33;;;;;;;;;;;15.70;60.40;;;;;;6240644;23;19903;-90
2022/09/12 04:28:59;;;;;;;;;;;15.70;60.40;;;;;;6241140;22;19946;-87
2022/09/12 04:31:25;;;;;;;;;;;15.70;60.30;;;;;;6241151;23;19904;-88
2022/09/12 04:33:59;;;;;;;;;;;15.60;60.30;;;;;;6243127;22;20065;-87
2022/09/12 04:36:26;;;;;;;;;;;15.50;60.20;;;;;;6240193;23;19958;-88
2022/09/12 04:38:52;;;;;;;;;;;15.50;60.10;;;;;;6242228;22;19916;-91
2022/09/12 04:41:21;;;;;;;;;;;15.50;60.10;;;;;;6241761;23;19910;-88
2022/09/12 04:43:50;;;;;;;;;;;15.50;60.10;;;;;;6241259;22;19950;-90
2022/09/12 04:46:18;;;;;;;;;;;15.40;60.30;;;;;;6239863;23;19914;-88
2022/09/12 04:48:44;;;;;;;;;;;15.40;60.30;;;;;;6240803;22;20526;-91
2022/09/12 04:51:12;;;;;;;;;;;15.40;60.30;;;;;;6243511;23;19950;-85
2022/09/12 04:53:50;;;;;;;;;;;15.40;60.30;;;;;;6243664;22;19911;-87
2022/09/12 04:56:17;;;;;;;;;;;15.30;60.30;;;;;;6237410;23;19914;-88
2022/09/12 04:58:42;;;;;;;;;;;15.30;60.30;;;;;;6240722;22;20378;-87
2022/09/12 05:01:09;;;;;;;;;;;15.30;60.30;;;;;;6241077;23;19907;-88
2022/09/12 05:03:37;;;;;;;;;;;15.30;60.40;;;;;;6243274;22;19907;-86
2022/09/12 05:06:04;;;;;;;;;;;15.30;60.50;;;;;;6241313;23;19914;-87
2022/09/12 05:08:29;;;;;;;;;;;15.30;60.70;;;;;;6243586;22;19912;-90
2022/09/12 05:10:55;;;;;;;;;;;15.30;61.00;;;;;;6242798;23;19958;-87
2022/09/12 05:13:24;;;;;;;;;;;15.40;61.30;;;;;;6240666;22;19904;-84
2022/09/12 05:15:57;;;;;;;;;;;15.40;61.50;;;;;;6242065;23;19907;-90
2022/09/12 05:18:23;;;;;;;;;;;15.50;61.80;;;;;;6240799;22;20320;-90
2022/09/12 05:20:49;;;;;;;;;;;15.70;62.10;;;;;;6242383;23;19914;-87
2022/09/12 05:23:14;;;;;;;;;;;15.80;62.50;;;;;;6241044;22;19904;-87
2022/09/12 05:25:47;;;;;;;;;;;16.00;62.80;;;;;;6243026;23;19916;-85
2022/09/12 05:28:12;;;;;;;;;;;16.20;63.10;;;;;;6241046;22;19907;-85
2022/09/12 05:30:38;;;;;;;;;;;16.40;63.50;;;;;;6242701;23;19910;-88
2022/09/12 05:33:04;;;;;;;;;;;16.60;63.80;;;;;;6241107;22;19904;-87
2022/09/12 05:35:30;;;;;;;;;;;16.80;64.10;;;;;;6241205;23;20323;-88
2022/09/12 05:37:55;;;;;;;;;;;17.20;64.60;;;;;;6242565;22;19929;-86
2022/09/12 05:40:21;;;;;;;;;;;17.50;65.00;;;;;;6244578;23;19990;-88
2022/09/12 05:42:46;;;;;;;;;;;17.90;65.40;;;;;;6240810;22;19907;-87
2022/09/12 05:45:17;;;;;;;;;;;18.20;65.80;;;;;;6242273;23;20078;-91
2022/09/12 05:47:45;;;;;;;;;;;18.70;65.90;;;;;;6241987;22;19939;-85
2022/09/12 05:50:11;;;;;;;;;;;19.00;65.90;;;;;;6246958;22;19915;-88
2022/09/12 05:52:36;;;;;;;;;;;19.40;66.00;;;;;;6241068;23;20367;-86
2022/09/12 05:55:02;;;;;;;;;;;19.80;65.70;;;;;;6242659;23;19912;-85
2022/09/12 05:57:28;;;;;;;;;;;20.00;65.80;;;;;;6240736;23;19954;-91
2022/09/12 05:59:56;;;;;;;;;;;20.40;66.30;;;;;;6241995;22;20303;-86
2022/09/12 06:02:21;;;;;;;;;;;20.80;66.30;;;;;;6242184;23;20204;-85
2022/09/12 06:04:47;;;;;;;;;;;21.20;66.30;;;;;;6240722;22;20050;-88
2022/09/12 06:07:13;;;;;;;;;;;21.50;66.00;;;;;;6241387;23;19904;-85
2022/09/12 06:09:38;;;;;;;;;;;21.80;65.60;;;;;;6241752;22;20316;-89
2022/09/12 06:12:04;;;;;;;;;;;22.20;65.40;;;;;;6242231;23;20234;-85
2022/09/12 06:14:31;;;;;;;;;;;22.40;65.40;;;;;;6237976;22;19951;-86
2022/09/12 06:16:57;;;;;;;;;;;22.70;65.40;;;;;;6239236;23;19911;-87
2022/09/12 06:19:23;;;;;;;;;;;23.00;65.40;;;;;;6239723;22;19916;-88
2022/09/12 06:21:50;;;;;;;;;;;23.30;65.20;;;;;;6239007;23;19991;-92
2022/09/12 06:24:16;;;;;;;;;;;23.50;64.80;;;;;;6237235;22;19930;-86
2022/09/12 06:26:52;;;;;;;;;;;23.80;65.50;;;;;;6236974;23;19907;-91
2022/09/12 06:29:18;;;;;;;;;;;24.20;65.60;;;;;;6235851;22;20704;-89
2022/09/12 06:31:46;;;;;;;;;;;24.60;65.30;;;;;;6236075;23;19907;-93
2022/09/12 06:34:13;;;;;;;;;;;24.90;65.10;;;;;;6238770;22;19926;-88
2022/09/12 06:36:40;;;;;;;;;;;25.20;63.80;;;;;;6234761;23;20348;-92
2022/09/12 06:39:07;;;;;;;;;;;25.40;63.90;;;;;;6236992;22;19916;-92
2022/09/12 06:41:33;;;;;;;;;;;25.70;63.80;;;;;;6238730;22;19908;-88
2022/09/12 06:44:00;;;;;;;;;;;26.00;64.10;;;;;;6239136;22;19930;-91
2022/09/12 06:46:26;;;;;;;;;;;26.30;64.00;;;;;;6237783;23;19911;-88
2022/09/12 06:48:52;;;;;;;;;;;26.50;63.50;;;;;;6235882;22;19915;-85
2022/09/12 06:51:18;;;;;;;;;;;26.80;64.20;;;;;;6236601;23;19998;-88
2022/09/12 06:53:52;;;;;;;;;;;27.10;63.90;;;;;;6238509;22;19916;-87
2022/09/12 06:56:20;;;;;;;;;;;27.50;63.50;;;;;;6233343;23;19916;-88
2022/09/12 06:58:46;;;;;;;;;;;27.90;64.00;;;;;;6241416;22;19939;-85
2022/09/12 07:01:14;;;;;;;;;;;28.30;64.60;;;;;;6237411;22;20480;-86
2022/09/12 07:03:40;;;;;;;;;;;28.80;64.80;;;;;;6236911;22;19947;-91
2022/09/12 07:06:30;;;;;;;;;;;29.20;64.30;;;;;;6236973;23;19915;-88
2022/09/12 07:08:57;;;;;;;;;;;29.60;62.70;;;;;;6236199;22;20414;-88
2022/09/12 07:11:23;;;;;;;;;;;29.90;61.90;;;;;;6237101;22;20334;-86
2022/09/12 07:13:50;;;;;;;;;;;30.10;60.60;;;;;;6234126;22;19919;-87
2022/09/12 07:16:15;;;;;;;;;;;30.30;61.20;;;;;;6236454;23;19926;-85
2022/09/12 07:18:41;;;;;;;;;;;30.70;62.00;;;;;;6236629;22;20314;-87
2022/09/12 07:21:09;;;;;;;;;;;31.00;61.80;;;;;;6238632;22;19958;-88
2022/09/12 07:23:56;;;;;;;;;;;31.40;61.40;;;;;;6235908;22;19911;-92
2022/09/12 07:26:22;;;;;;;;;;;31.80;61.20;;;;;;6240097;22;20327;-87
2022/09/12 07:28:54;;;;;;;;;;;32.30;59.80;;;;;;6238970;22;19922;-88
2022/09/12 07:31:26;;;;;;;;;;;32.60;58.50;;;;;;6239660;22;20240;-87
2022/09/12 07:33:52;;;;;;;;;;;33.00;57.20;;;;;;6235957;22;19939;-88
2022/09/12 07:36:19;;;;;;;;;;;33.30;55.50;;;;;;6240340;22;20011;-88
2022/09/12 07:38:45;;;;;;;;;;;33.50;55.00;;;;;;6237240;22;19918;-88
2022/09/12 07:41:10;;;;;;;;;;;33.60;51.30;;;;;;6237725;23;20251;-90
2022/09/12 07:43:36;;;;;;;;;;;33.60;48.90;;;;;;6238144;22;19911;-88
2022/09/12 07:46:02;;;;;;;;;;;33.70;47.70;;;;;;6240498;23;19943;-88
2022/09/12 07:48:27;;;;;;;;;;;33.70;46.20;;;;;;6239509;22;19911;-85
2022/09/12 07:50:59;;;;;;;;;;;33.70;45.50;;;;;;6238923;23;19938;-85
2022/09/12 07:53:33;;;;;;;;;;;33.80;45.60;;;;;;6238477;22;19962;-91
2022/09/12 07:55:58;;;;;;;;;;;33.80;43.80;;;;;;6246600;22;20316;-90
2022/09/12 07:58:24;;;;;;;;;;;33.80;42.40;;;;;;6240898;22;19938;-90
2022/09/12 08:00:49;;;;;;;;;;;33.90;42.30;;;;;;6239886;22;19916;-84
2022/09/12 08:03:16;;;;;;;;;;;34.00;41.20;;;;;;6236405;22;19957;-85
2022/09/12 08:05:42;;;;;;;;;;;34.20;41.40;;;;;;6238174;23;20018;-92
2022/09/12 08:08:07;;;;;;;;;;;34.40;41.10;;;;;;6237725;22;20298;-88
2022/09/12 08:10:33;;;;;;;;;;;34.60;39.00;;;;;;6240057;23;19966;-88
2022/09/12 08:12:58;;;;;;;;;;;34.90;38.30;;;;;;6236324;22;19914;-91
2022/09/12 08:15:24;;;;;;;;;;;35.20;36.60;;;;;;6237379;23;19982;-86
2022/09/12 08:17:49;;;;;;;;;;;35.40;36.10;;;;;;6239696;22;19986;-90
2022/09/12 08:20:16;;;;;;;;;;;35.80;37.10;;;;;;6240211;23;19915;-91
2022/09/12 08:22:42;;;;;;;;;;;35.90;35.60;;;;;;6237393;22;20355;-91
2022/09/12 08:25:08;;;;;;;;;;;36.10;35.90;;;;;;6237938;23;20389;-85
2022/09/12 08:27:33;;;;;;;;;;;36.10;35.30;;;;;;6237163;23;19950;-88
2022/09/12 08:29:59;;;;;;;;;;;36.10;34.70;;;;;;6239443;22;19920;-85
2022/09/12 08:32:24;;;;;;;;;;;35.90;35.00;;;;;;6236550;23;19911;-85
2022/09/12 08:34:50;;;;;;;;;;;35.80;34.10;;;;;;6238998;22;19916;-88
2022/09/12 08:37:16;;;;;;;;;;;35.50;33.90;;;;;;6240621;23;19954;-93
2022/09/12 08:39:42;;;;;;;;;;;35.20;32.90;;;;;;6240978;22;19911;-92
2022/09/12 08:42:09;;;;;;;;;;;34.80;33.20;;;;;;6244671;23;19908;-91
2022/09/12 08:44:53;;;;;;;;;;;34.60;33.50;;;;;;6233436;22;19923;-86
2022/09/12 08:47:20;;;;;;;;;;;34.30;33.60;;;;;;6237487;23;19907;-89
2022/09/12 08:49:51;;;;;;;;;;;34.10;33.40;;;;;;6237533;22;19915;-87
2022/09/12 08:52:36;;;;;;;;;;;34.00;33.90;;;;;;6238264;23;19966;-85
2022/09/12 08:55:05;;;;;;;;;;;33.90;33.70;;;;;;6238948;22;20050;-85
2022/09/12 08:57:32;;;;;;;;;;;33.80;33.90;;;;;;6262788;22;20235;-88
2022/09/12 09:00:00;;;;;;;;;;;33.70;34.00;;;;;;6238301;22;19923;-89
2022/09/12 09:02:31;;;;;;;;;;;33.40;33.90;;;;;;6239322;22;19908;-88
2022/09/12 09:05:11;;;;;;;;;;;33.40;34.10;;;;;;6237510;22;19962;-86
2022/09/12 09:07:43;;;;;;;;;;;33.30;33.90;;;;;;6235150;23;19914;-86
2022/09/12 09:10:32;;;;;;;;;;;33.20;34.00;;;;;;6238756;23;19919;-86
2022/09/12 09:14:46;;;;;;;;;;;33.00;34.00;;;;;;6241480;22;20437;-92
2022/09/12 09:16:24;;;;;;;;;;;33.00;34.40;;;;;;6238993;23;19947;-85
2022/09/12 09:18:51;;;;;;;;;;;33.20;34.50;;;;;;6194294;22;19998;-84
2022/09/12 09:21:20;;;;;;;;;;;33.30;34.30;;;;;;6236818;23;19908;-92
2022/09/12 09:23:52;;;;;;;;;;;33.30;33.80;;;;;;6240726;22;19967;-88
2022/09/12 09:26:18;;;;;;;;;;;33.50;33.30;;;;;;6239489;22;19911;-88
2022/09/12 09:28:52;;;;;;;;;;;33.60;32.80;;;;;;6239651;22;19915;-88
2022/09/12 09:31:19;;;;;;;;;;;33.70;33.00;;;;;;6241387;22;19983;-89
2022/09/12 09:33:49;;;;;;;;;;;33.80;32.20;;;;;;6239326;22;20250;-91
2022/09/12 09:36:30;;;;;;;;;;;33.80;31.90;;;;;;6236686;23;19908;-87
2022/09/12 09:39:04;;;;;;;;;;;33.90;32.00;;;;;;6239801;22;19922;-89
2022/09/12 09:41:30;;;;;;;;;;;34.10;32.40;;;;;;6241176;22;19912;-87
2022/09/12 09:43:56;;;;;;;;;;;34.20;31.80;;;;;;6237876;22;19919;-85
2022/09/12 09:46:22;;;;;;;;;;;34.10;31.30;;;;;;6244258;23;20426;-92
2022/09/12 09:48:48;;;;;;;;;;;34.10;31.40;;;;;;6237063;22;19915;-88
2022/09/12 09:51:15;;;;;;;;;;;34.10;31.40;;;;;;6239055;22;19908;-85
2022/09/12 09:54:00;;;;;;;;;;;34.00;31.20;;;;;;6236453;22;20343;-92
2022/09/12 09:56:32;;;;;;;;;;;34.00;31.30;;;;;;6237256;23;19915;-91
2022/09/12 09:59:07;;;;;;;;;;;33.90;31.60;;;;;;6208640;22;19911;-88
2022/09/12 10:01:33;;;;;;;;;;;33.90;31.90;;;;;;6236665;23;20373;-88
2022/09/12 10:03:58;;;;;;;;;;;34.00;32.00;;;;;;6235831;22;19915;-88
2022/09/12 10:06:31;;;;;;;;;;;34.10;31.60;;;;;;6236539;23;19915;-86
2022/09/12 10:09:05;;;;;;;;;;;34.10;31.80;;;;;;6237850;22;19982;-88
2022/09/12 10:11:31;;;;;;;;;;;34.10;31.20;;;;;;6240384;22;19916;-87
2022/09/12 10:13:58;;;;;;;;;;;34.10;30.90;;;;;;6237160;22;19926;-86
2022/09/12 10:16:46;;;;;;;;;;;34.00;31.00;;;;;;6237405;23;19919;-89
2022/09/12 10:19:20;;;;;;;;;;;34.00;30.80;;;;;;6238822;22;19977;-86
2022/09/12 10:21:49;;;;;;;;;;;34.20;31.30;;;;;;6236639;23;20263;-92
2022/09/12 10:24:34;;;;;;;;;;;34.30;31.10;;;;;;6260355;22;20043;-92
2022/09/12 10:27:14;;;;;;;;;;;34.50;30.80;;;;;;6236246;23;19915;-87
2022/09/12 10:29:47;;;;;;;;;;;34.60;31.10;;;;;;6237134;22;19939;-88
2022/09/12 10:32:19;;;;;;;;;;;34.70;30.80;;;;;;6238127;22;19915;-87
2022/09/12 10:34:45;;;;;;;;;;;34.60;30.20;;;;;;6235137;22;19943;-94
2022/09/12 10:37:22;;;;;;;;;;;34.60;30.20;;;;;;6237694;23;19916;-88
2022/09/12 10:39:53;;;;;;;;;;;34.50;29.90;;;;;;6236654;22;19907;-91
2022/09/12 10:42:37;;;;;;;;;;;34.40;29.90;;;;;;6241040;22;19916;-88
2022/09/12 10:45:03;;;;;;;;;;;34.30;29.70;;;;;;6237685;23;19931;-92
2022/09/12 10:47:30;;;;;;;;;;;34.30;29.60;;;;;;6237696;23;19922;-86
2022/09/12 10:50:15;;;;;;;;;;;34.30;29.90;;;;;;6235433;22;19987;-89
2022/09/12 10:52:42;;;;;;;;;;;34.30;30.00;;;;;;6234379;22;19920;-86
2022/09/12 10:55:12;;;;;;;;;;;34.30;29.70;;;;;;6235276;23;19966;-89
2022/09/12 10:58:13;;;;;;;;;;;34.30;29.60;;;;;;6236455;22;19911;-86
2022/09/12 11:00:41;;;;;;;;;;;34.20;29.70;;;;;;6145904;23;19916;-88
2022/09/12 11:03:23;;;;;;;;;;;34.30;29.80;;;;;;6215306;22;19916;-88
2022/09/12 11:05:53;;;;;;;;;;;34.30;29.90;;;;;;6236751;23;19946;-89
2022/09/12 11:08:54;;;;;;;;;;;34.60;29.40;;;;;;6238184;22;19987;-92
2022/09/12 11:11:22;;;;;;;;;;;34.80;29.40;;;;;;6145737;23;20096;-89
2022/09/12 11:13:56;;;;;;;;;;;35.40;29.40;;;;;;6213231;22;19965;-86
2022/09/12 11:16:41;;;;;;;;;;;35.70;28.90;;;;;;6238510;22;19911;-91
2022/09/12 11:19:06;;;;;;;;;;;35.80;27.90;;;;;;6236528;22;19923;-93
2022/09/12 11:21:32;;;;;;;;;;;35.80;27.30;;;;;;6236754;23;19908;-88
2022/09/12 11:23:58;;;;;;;;;;;35.80;27.00;;;;;;6234885;22;19923;-86
2022/09/12 11:26:42;;;;;;;;;;;36.00;26.60;;;;;;6238720;23;19959;-87
2022/09/12 11:29:27;;;;;;;;;;;36.10;26.40;;;;;;6240564;22;19926;-85
2022/09/12 11:32:02;;;;;;;;;;;36.30;26.40;;;;;;6237872;23;19950;-89
2022/09/12 11:34:33;;;;;;;;;;;36.70;26.20;;;;;;6231179;22;19915;-88
2022/09/12 11:37:02;;;;;;;;;;;37.30;25.50;;;;;;6240333;22;19914;-87
2022/09/12 11:39:36;;;;;;;;;;;37.70;25.00;;;;;;6241264;22;19920;-88
2022/09/12 11:42:04;;;;;;;;;;;38.10;24.60;;;;;;6241834;22;19904;-86
2022/09/12 11:44:39;;;;;;;;;;;38.30;23.90;;;;;;6234425;22;20095;-92
2022/09/12 11:47:07;;;;;;;;;;;38.50;23.50;;;;;;6237921;23;19907;-89
2022/09/12 11:49:35;;;;;;;;;;;38.70;23.50;;;;;;6239159;22;19916;-87
2022/09/12 11:52:13;;;;;;;;;;;38.90;23.40;;;;;;6235993;23;19914;-85
2022/09/12 11:54:38;;;;;;;;;;;39.20;23.40;;;;;;6234207;22;19919;-89
2022/09/12 11:57:04;;;;;;;;;;;39.70;23.30;;;;;;6237467;23;19931;-95
2022/09/12 11:59:41;;;;;;;;;;;39.80;22.40;;;;;;6241433;22;19919;-86
2022/09/12 12:02:11;;;;;;;;;;;40.00;22.10;;;;;;6237426;23;19914;-89
2022/09/12 12:04:43;;;;;;;;;;;40.00;21.60;;;;;;6235921;22;20453;-89
2022/09/12 12:07:10;;;;;;;;;;;40.10;21.20;;;;;;6240711;23;19983;-93
2022/09/12 12:09:55;;;;;;;;;;;40.20;21.30;;;;;;6242941;22;19919;-87
2022/09/12 12:12:23;;;;;;;;;;;40.40;21.40;;;;;;6236929;23;19912;-86
2022/09/12 12:14:49;;;;;;;;;;;40.40;21.40;;;;;;6236198;22;19975;-88
2022/09/12 12:17:17;;;;;;;;;;;40.40;21.40;;;;;;6239778;22;19939;-88
2022/09/12 12:19:44;;;;;;;;;;;40.60;20.90;;;;;;6238571;22;19969;-86
2022/09/12 12:22:18;;;;;;;;;;;40.50;20.50;;;;;;6243023;22;19974;-86
2022/09/12 12:24:53;;;;;;;;;;;40.30;20.50;;;;;;6241334;22;19924;-88
2022/09/12 12:27:48;;;;;;;;;;;40.10;20.50;;;;;;6241478;22;19907;-88
2022/09/12 12:30:29;;;;;;;;;;;39.30;20.50;;;;;;6221243;23;19916;-87
2022/09/12 12:33:01;;;;;;;;;;;38.80;21.00;;;;;;6240931;22;19908;-92
2022/09/12 12:35:38;;;;;;;;;;;38.80;21.20;;;;;;6242315;22;20641;-88
2022/09/12 12:38:23;;;;;;;;;;;38.90;21.40;;;;;;6243728;22;19956;-88
2022/09/12 12:40:49;;;;;;;;;;;38.50;21.50;;;;;;6245420;22;20235;-86
2022/09/12 12:43:30;;;;;;;;;;;38.50;21.70;;;;;;6240125;22;19979;-89
2022/09/12 12:46:15;;;;;;;;;;;38.50;21.60;;;;;;6240880;23;19924;-92
2022/09/12 12:48:50;;;;;;;;;;;38.30;21.80;;;;;;6246255;22;19914;-88
2022/09/12 12:51:26;;;;;;;;;;;38.20;22.20;;;;;;6240502;23;19912;-89
2022/09/12 12:53:52;;;;;;;;;;;38.20;22.40;;;;;;6242964;22;19942;-86
2022/09/12 12:56:25;;;;;;;;;;;38.60;22.20;;;;;;6246959;22;19959;-89
2022/09/12 12:59:02;;;;;;;;;;;38.40;21.70;;;;;;6240133;22;19982;-89
2022/09/12 13:01:28;;;;;;;;;;;38.20;21.80;;;;;;6244859;22;19971;-87
2022/09/12 13:03:54;;;;;;;;;;;38.10;21.70;;;;;;6246469;22;19954;-89
2022/09/12 13:06:36;;;;;;;;;;;38.00;21.90;;;;;;6244351;22;19963;-87
2022/09/12 13:09:06;;;;;;;;;;;38.00;22.10;;;;;;6243812;22;19912;-87
2022/09/12 13:11:39;;;;;;;;;;;38.00;22.20;;;;;;6243579;22;19916;-92
2022/09/12 13:14:06;;;;;;;;;;;37.90;21.90;;;;;;6241610;22;19935;-90
2022/09/12 13:16:33;;;;;;;;;;;37.70;21.80;;;;;;6243799;22;19919;-88
2022/09/12 13:19:07;;;;;;;;;;;37.50;21.40;;;;;;6242960;22;19911;-85
2022/09/12 13:21:32;;;;;;;;;;;37.40;22.00;;;;;;6240620;23;20298;-88
2022/09/12 13:24:18;;;;;;;;;;;37.40;22.40;;;;;;6242649;22;19912;-88
2022/09/12 13:26:45;;;;;;;;;;;37.10;21.90;;;;;;6239859;23;19915;-88
2022/09/12 13:29:17;;;;;;;;;;;36.40;22.40;;;;;;6243840;22;19915;-92
2022/09/12 13:31:47;;;;;;;;;;;36.00;23.00;;;;;;6239854;23;19994;-86
2022/09/12 13:34:24;;;;;;;;;;;35.50;23.40;;;;;;6244466;22;19911;-86
2022/09/12 13:36:59;;;;;;;;;;;35.00;24.00;;;;;;6240498;23;19920;-89
2022/09/12 13:39:28;;;;;;;;;;;34.60;24.40;;;;;;6240764;22;19911;-85
2022/09/12 13:42:03;;;;;;;;;;;34.20;25.00;;;;;;6240642;23;19923;-88
2022/09/12 13:44:29;;;;;;;;;;;33.80;25.50;;;;;;6242895;22;19912;-89
2022/09/12 13:47:00;;;;;;;;;;;33.40;26.00;;;;;;6243645;22;19916;-89
2022/09/12 13:49:30;;;;;;;;;;;33.00;26.30;;;;;;6248012;22;19916;-85
2022/09/12 13:51:58;;;;;;;;;;;32.80;26.80;;;;;;6242669;23;19915;-89
2022/09/12 13:54:25;;;;;;;;;;;32.60;27.00;;;;;;6244628;22;19915;-88
2022/09/12 13:56:54;;;;;;;;;;;32.50;27.10;;;;;;6240182;23;19915;-92
2022/09/12 13:59:20;;;;;;;;;;;32.30;27.10;;;;;;6243904;22;19991;-87
2022/09/12 14:01:46;;;;;;;;;;;32.10;27.20;;;;;;6242193;23;19926;-88
2022/09/12 14:07:01;;;;;;;;;;;31.90;27.90;;;;;;6241449;23;20481;-85
2022/09/12 14:09:33;;;;;;;;;;;31.70;28.20;;;;;;6238417;22;19911;-87
2022/09/12 14:11:59;;;;;;;;;;;31.60;28.30;;;;;;6242875;22;20319;-91
2022/09/12 14:14:36;;;;;;;;;;;31.50;28.40;;;;;;6265192;22;19908;-85
2022/09/12 14:17:21;;;;;;;;;;;31.40;28.60;;;;;;6238146;22;19922;-89
2022/09/12 14:19:48;;;;;;;;;;;31.30;28.80;;;;;;6238408;22;20697;-89
2022/09/12 14:22:16;;;;;;;;;;;31.10;28.90;;;;;;6238547;23;19954;-90
2022/09/12 14:24:48;;;;;;;;;;;31.00;29.10;;;;;;6236245;22;19994;-88
2022/09/12 14:27:37;;;;;;;;;;;30.90;28.90;;;;;;6238443;23;19922;-88
2022/09/12 14:30:07;;;;;;;;;;;30.70;28.80;;;;;;6226702;23;20359;-92
2022/09/12 14:32:33;;;;;;;;;;;30.70;29.10;;;;;;6241193;23;19915;-86
2022/09/12 14:35:11;;;;;;;;;;;30.60;29.60;;;;;;6237580;22;19914;-85